Time;durP1;ratioP1;P1;durP2;ratioP2;P2;SDS_P1;SDS_P2;PMS_P1;PMS_P2;Temp;Humidity;BMP_temperature;BMP_pressure;BME280_temperature;BME280_humidity;BME280_pressure;Samples;Min_cycle;Max_cycle;Signal;HPM_P1;HPM_P2
2022/10/13 00:00:42;;;;;;;57.17;26.83;;;;;;;12.42;100.00;93186.53;5072693;28;20036;-78
2022/10/13 00:03:08;;;;;;;63.47;26.50;;;;;;;12.44;100.00;93192.31;5073439;28;20123;-79
2022/10/13 00:05:34;;;;;;;54.85;26.70;;;;;;;12.42;100.00;93189.16;5073914;28;20123;-78
2022/10/13 00:08:00;;;;;;;64.28;26.75;;;;;;;12.41;100.00;93193.66;5073839;28;20444;-79
2022/10/13 00:10:28;;;;;;;57.47;26.65;;;;;;;12.40;100.00;93186.03;5074008;28;20512;-78
2022/10/13 00:12:54;;;;;;;54.75;26.67;;;;;;;12.37;100.00;93182.13;5076015;28;20133;-78
2022/10/13 00:15:21;;;;;;;65.53;27.10;;;;;;;12.37;100.00;93192.63;5076776;28;20120;-78
2022/10/13 00:17:46;;;;;;;71.85;28.15;;;;;;;12.36;100.00;93188.47;5078022;28;20153;-78
2022/10/13 00:20:12;;;;;;;59.90;26.05;;;;;;;12.37;100.00;93191.88;5077917;28;20032;-79
2022/10/13 00:22:38;;;;;;;51.15;24.23;;;;;;;12.34;100.00;93185.34;5076615;28;20020;-78
2022/10/13 00:25:04;;;;;;;41.97;22.23;;;;;;;12.37;100.00;93186.63;5076169;28;20425;-78
2022/10/13 00:27:29;;;;;;;48.15;21.13;;;;;;;12.35;100.00;93194.75;5077839;28;20036;-78
2022/10/13 00:29:55;;;;;;;38.92;21.02;;;;;;;12.36;100.00;93192.91;5077482;28;20447;-78
2022/10/13 00:32:21;;;;;;;43.80;22.63;;;;;;;12.36;100.00;93196.34;5077747;28;20123;-78
2022/10/13 00:34:46;;;;;;;55.28;23.95;;;;;;;12.39;100.00;93184.50;5077522;28;20068;-78
2022/10/13 00:37:13;;;;;;;56.92;24.05;;;;;;;12.40;100.00;93180.78;5077241;28;20115;-78
2022/10/13 00:39:38;;;;;;;49.55;23.98;;;;;;;12.41;100.00;93182.38;5076439;28;20107;-78
2022/10/13 00:42:06;;;;;;;50.15;24.23;;;;;;;12.38;100.00;93181.06;5075619;28;20563;-78
2022/10/13 00:45:17;;;;;;;46.33;21.88;;;;;;;12.37;100.00;93179.50;5076603;28;20052;-79
2022/10/13 00:47:47;;;;;;;51.70;22.25;;;;;;;12.36;100.00;93166.66;5054745;28;20040;-78
2022/10/13 00:50:22;;;;;;;46.63;22.23;;;;;;;12.37;100.00;93173.47;5054583;28;20063;-78
2022/10/13 00:52:56;;;;;;;46.60;22.17;;;;;;;12.36;100.00;93164.03;5068513;28;20082;-79
2022/10/13 00:55:26;;;;;;;46.92;21.38;;;;;;;12.35;100.00;93172.97;5075836;28;20032;-78
2022/10/13 00:57:54;;;;;;;36.10;18.10;;;;;;;12.32;100.00;93168.31;5075346;28;20055;-78
2022/10/13 01:00:29;;;;;;;36.15;18.13;;;;;;;12.31;100.00;93175.38;5076975;28;20033;-78
2022/10/13 01:02:54;;;;;;;36.72;18.70;;;;;;;12.31;100.00;93179.84;5076923;28;20071;-79
2022/10/13 01:05:20;;;;;;;35.15;17.88;;;;;;;12.29;100.00;93183.53;5059080;28;20678;-78
2022/10/13 01:07:51;;;;;;;43.33;19.83;;;;;;;12.31;100.00;93172.75;5076039;28;20036;-78
2022/10/13 01:10:42;;;;;;;43.60;18.77;;;;;;;12.28;100.00;93174.09;5074580;28;20409;-78
2022/10/13 01:13:20;;;;;;;40.30;19.17;;;;;;;12.31;100.00;93177.22;5073213;28;20452;-78
2022/10/13 01:16:00;;;;;;;35.67;18.08;;;;;;;12.30;100.00;93171.19;5076100;28;20305;-78
2022/10/13 01:18:46;;;;;;;40.38;19.83;;;;;;;12.34;100.00;93171.41;5076293;28;20040;-78
2022/10/13 01:21:42;;;;;;;43.35;20.02;;;;;;;12.35;100.00;93173.75;5076063;28;20036;-78
2022/10/13 01:24:07;;;;;;;38.70;18.50;;;;;;;12.35;100.00;93175.59;5073743;28;20052;-78
2022/10/13 01:26:59;;;;;;;41.38;17.70;;;;;;;12.36;100.00;93179.78;5074496;28;20024;-78
2022/10/13 01:29:53;;;;;;;34.95;17.02;;;;;;;12.28;100.00;93168.84;5075333;28;20044;-78
2022/10/13 01:32:43;;;;;;;38.03;16.95;;;;;;;12.37;100.00;93184.00;5076672;28;20040;-78
2022/10/13 01:35:21;;;;;;;33.88;17.10;;;;;;;12.35;100.00;93181.63;5074916;28;20029;-78
2022/10/13 01:37:51;;;;;;;33.15;17.40;;;;;;;12.35;100.00;93176.38;5074485;28;20036;-78
2022/10/13 01:40:24;;;;;;;30.92;17.17;;;;;;;12.36;100.00;93171.91;5076337;28;20032;-78
2022/10/13 01:43:14;;;;;;;32.38;16.38;;;;;;;12.35;100.00;93172.97;5076267;28;20053;-78
2022/10/13 01:45:49;;;;;;;33.95;17.20;;;;;;;12.34;100.00;93177.47;5075620;28;20032;-78
2022/10/13 01:48:18;;;;;;;28.90;15.63;;;;;;;12.34;100.00;93176.66;5074245;28;20040;-79
2022/10/13 01:50:49;;;;;;;31.52;17.10;;;;;;;12.32;100.00;93173.56;5075819;28;20024;-78
2022/10/13 01:53:17;;;;;;;41.92;18.15;;;;;;;12.31;100.00;93182.47;5076028;28;20044;-78
2022/10/13 01:55:56;;;;;;;36.92;18.08;;;;;;;12.31;100.00;93179.84;5075636;28;20037;-78
2022/10/13 01:58:24;;;;;;;37.78;18.10;;;;;;;12.32;100.00;93178.81;5076038;28;20501;-79
2022/10/13 02:01:04;;;;;;;41.03;17.95;;;;;;;12.31;100.00;93174.59;5075907;28;20430;-79
2022/10/13 02:03:45;;;;;;;41.22;18.00;;;;;;;12.29;100.00;93175.66;5076199;28;20039;-78
2022/10/13 02:06:22;;;;;;;44.42;18.50;;;;;;;12.27;100.00;93177.78;5075686;28;20397;-78
2022/10/13 02:09:06;;;;;;;39.97;19.45;;;;;;;12.27;100.00;93171.72;5074293;28;20099;-78
2022/10/13 02:11:31;;;;;;;44.60;19.63;;;;;;;12.26;100.00;93160.47;5074164;28;20049;-79
2022/10/13 02:14:07;;;;;;;40.72;20.38;;;;;;;12.27;100.00;93167.28;5073836;28;20035;-78
2022/10/13 02:16:41;;;;;;;44.10;20.30;;;;;;;12.27;100.00;93156.78;5075256;28;20032;-78
2022/10/13 02:19:10;;;;;;;55.53;23.23;;;;;;;12.25;100.00;93155.50;5058171;28;20093;-78
2022/10/13 02:21:36;;;;;;;48.97;25.30;;;;;;;12.27;100.00;93148.91;5075098;28;20025;-78
2022/10/13 02:24:20;;;;;;;49.28;24.58;;;;;;;12.26;100.00;93139.47;5076187;28;20516;-78
2022/10/13 02:26:46;;;;;;;56.30;24.15;;;;;;;12.22;100.00;93135.81;5075791;28;20462;-78
2022/10/13 02:29:15;;;;;;;53.42;25.20;;;;;;;12.20;100.00;93134.53;5074561;28;20032;-78
2022/10/13 02:31:42;;;;;;;50.40;23.08;;;;;;;12.17;100.00;93135.13;5075673;28;20040;-78
2022/10/13 02:34:09;;;;;;;49.28;24.10;;;;;;;12.12;100.00;93125.47;5075924;28;20028;-78
2022/10/13 02:36:36;;;;;;;58.80;23.63;;;;;;;12.07;100.00;93117.66;5075725;28;20077;-78
2022/10/13 02:39:03;;;;;;;46.67;22.83;;;;;;;12.06;100.00;93119.47;5075752;28;20124;-78
2022/10/13 02:41:28;;;;;;;47.63;22.23;;;;;;;12.02;100.00;93120.31;5075732;28;20118;-78
2022/10/13 02:43:54;;;;;;;44.50;22.60;;;;;;;11.98;100.00;93116.66;5074574;28;20125;-78
2022/10/13 02:46:20;;;;;;;44.03;23.55;;;;;;;11.93;100.00;93119.34;5075379;28;20127;-78
2022/10/13 02:48:46;;;;;;;48.05;23.10;;;;;;;11.90;100.00;93122.53;5074439;28;20129;-78
2022/10/13 02:51:11;;;;;;;48.78;23.00;;;;;;;11.87;100.00;93121.22;5073669;28;20056;-78
2022/10/13 02:53:37;;;;;;;48.75;22.55;;;;;;;11.83;100.00;93121.00;5074959;28;20482;-78
2022/10/13 02:56:02;;;;;;;45.83;20.83;;;;;;;11.85;100.00;93124.13;5075410;28;20044;-78
2022/10/13 02:58:30;;;;;;;47.50;22.08;;;;;;;11.85;100.00;93124.13;5075327;28;20078;-78
2022/10/13 03:01:17;;;;;;;47.40;21.30;;;;;;;11.89;100.00;93119.16;5075107;28;20103;-78
2022/10/13 03:03:42;;;;;;;42.95;21.08;;;;;;;11.88;100.00;93120.97;5073249;28;20054;-78
2022/10/13 03:06:09;;;;;;;48.22;21.70;;;;;;;11.89;100.00;93113.91;5075128;28;20051;-78
2022/10/13 03:08:35;;;;;;;47.30;21.48;;;;;;;11.92;100.00;93115.19;5074791;28;20052;-78
2022/10/13 03:11:01;;;;;;;36.35;18.27;;;;;;;11.91;100.00;93111.78;5073638;28;20102;-78
2022/10/13 03:13:27;;;;;;;36.10;16.50;;;;;;;11.94;100.00;93116.47;5074581;28;20161;-78
2022/10/13 03:15:53;;;;;;;35.17;15.77;;;;;;;11.95;100.00;93112.00;5073149;28;20488;-78
2022/10/13 03:18:18;;;;;;;28.23;14.82;;;;;;;11.94;100.00;93105.19;5069651;28;20071;-78
2022/10/13 03:20:58;;;;;;;38.08;14.35;;;;;;;11.97;100.00;93115.91;5054811;28;20045;-78
2022/10/13 03:23:24;;;;;;;26.58;13.48;;;;;;;11.94;100.00;93108.59;5054700;28;20078;-78
2022/10/13 03:26:09;;;;;;;34.25;15.32;;;;;;;11.98;100.00;93106.19;5054261;28;20474;-78
2022/10/13 03:28:35;;;;;;;31.08;15.55;;;;;;;11.98;100.00;93116.66;5053218;28;20051;-78
2022/10/13 03:31:07;;;;;;;39.30;16.48;;;;;;;11.95;100.00;93109.38;5054159;28;20033;-78
2022/10/13 03:33:33;;;;;;;38.90;17.48;;;;;;;11.94;100.00;93111.22;5054165;28;20039;-78
2022/10/13 03:36:00;;;;;;;39.38;16.33;;;;;;;11.92;100.00;93104.69;5053140;28;20121;-78
2022/10/13 03:38:27;;;;;;;34.88;16.58;;;;;;;11.88;100.00;93099.97;5054028;28;20032;-78
2022/10/13 03:40:53;;;;;;;32.90;15.43;;;;;;;11.85;100.00;93102.38;5054065;28;20040;-77
2022/10/13 03:43:18;;;;;;;35.33;16.20;;;;;;;11.81;100.00;93102.13;5054454;28;20057;-78
2022/10/13 03:46:04;;;;;;;28.85;14.85;;;;;;;11.74;100.00;93099.06;5054706;28;20037;-78
2022/10/13 03:48:30;;;;;;;29.70;14.93;;;;;;;11.67;100.00;93101.22;5052484;28;20044;-78
2022/10/13 03:50:56;;;;;;;37.22;17.75;;;;;;;11.60;100.00;93091.06;5053410;28;20123;-78
2022/10/13 03:53:24;;;;;;;38.53;17.70;;;;;;;11.50;100.00;93087.75;5054748;28;20037;-78
2022/10/13 03:55:54;;;;;;;37.63;18.05;;;;;;;11.47;100.00;93094.34;5054260;28;20056;-78
2022/10/13 03:58:22;;;;;;;40.95;18.77;;;;;;;11.39;100.00;93095.72;5054253;28;20385;-78
2022/10/13 04:00:51;;;;;;;44.07;20.87;;;;;;;11.35;100.00;93101.75;5053307;28;20043;-77
2022/10/13 04:03:17;;;;;;;52.05;20.73;;;;;;;11.26;100.00;93093.75;5054226;28;20347;-78
2022/10/13 04:05:43;;;;;;;40.25;18.90;;;;;;;11.20;100.00;93087.75;5055794;28;20041;-78
2022/10/13 04:08:09;;;;;;;45.47;18.70;;;;;;;11.15;100.00;93094.88;5055186;28;20171;-78
2022/10/13 04:10:34;;;;;;;42.65;20.60;;;;;;;11.14;100.00;93093.28;5037591;28;20517;-78
2022/10/13 04:13:01;;;;;;;38.00;18.35;;;;;;;11.10;100.00;93090.47;5055402;28;20065;-78
2022/10/13 04:15:27;;;;;;;42.60;18.58;;;;;;;11.10;100.00;93087.84;5055606;28;20037;-78
2022/10/13 04:17:52;;;;;;;39.50;20.35;;;;;;;11.08;100.00;93084.72;5054446;28;20555;-78
2022/10/13 04:20:18;;;;;;;47.35;21.27;;;;;;;11.07;100.00;93087.59;5053802;28;20036;-78
2022/10/13 04:22:44;;;;;;;51.60;22.55;;;;;;;11.03;100.00;93090.78;5054375;28;20051;-78
2022/10/13 04:25:09;;;;;;;56.50;24.95;;;;;;;11.00;100.00;93088.69;5054575;28;20033;-78
2022/10/13 04:27:37;;;;;;;52.75;24.40;;;;;;;10.97;100.00;93084.00;5054321;28;20037;-78
2022/10/13 04:30:06;;;;;;;58.85;25.45;;;;;;;10.91;100.00;93079.06;5054563;28;20037;-78
2022/10/13 04:32:33;;;;;;;51.72;23.30;;;;;;;10.93;100.00;93093.44;5054929;28;20090;-78
2022/10/13 04:35:01;;;;;;;54.70;22.50;;;;;;;10.89;100.00;93092.44;5053962;28;20029;-78
2022/10/13 04:37:27;;;;;;;54.38;23.30;;;;;;;10.89;100.00;93086.41;5052450;28;20568;-77
2022/10/13 04:39:53;;;;;;;47.60;22.88;;;;;;;10.86;100.00;93092.97;5053567;28;20021;-78
2022/10/13 04:42:18;;;;;;;58.35;23.95;;;;;;;10.83;100.00;93088.28;5044556;28;20498;-78
2022/10/13 04:44:44;;;;;;;53.75;23.00;;;;;;;10.83;100.00;93085.69;5074231;28;20061;-77
2022/10/13 04:47:10;;;;;;;45.00;21.70;;;;;;;10.81;100.00;93090.41;5077333;28;20112;-78
2022/10/13 04:49:36;;;;;;;50.38;22.48;;;;;;;10.82;100.00;93097.97;5078341;28;20131;-78
2022/10/13 04:52:01;;;;;;;51.22;22.60;;;;;;;10.79;100.00;93090.66;5066165;28;20037;-78
2022/10/13 04:54:36;;;;;;;53.28;22.27;;;;;;;10.80;100.00;93086.97;5055950;28;20520;-78
2022/10/13 04:57:01;;;;;;;44.65;22.05;;;;;;;10.76;100.00;93082.56;5065228;28;20039;-78
2022/10/13 04:59:27;;;;;;;47.88;21.38;;;;;;;10.74;100.00;93087.28;5071265;28;20044;-78
2022/10/13 05:01:52;;;;;;;42.58;20.77;;;;;;;10.72;100.00;93086.81;5055734;28;20432;-78
2022/10/13 05:04:18;;;;;;;46.67;20.10;;;;;;;10.71;100.00;93077.38;5073971;28;20036;-77
2022/10/13 05:06:43;;;;;;;48.22;20.50;;;;;;;10.68;100.00;93080.53;5073085;28;20094;-78
2022/10/13 05:09:15;;;;;;;39.40;18.75;;;;;;;10.65;100.00;93076.63;5055731;28;20030;-78
2022/10/13 05:11:41;;;;;;;44.55;18.90;;;;;;;10.60;100.00;93074.81;5074505;28;20032;-77
2022/10/13 05:14:07;;;;;;;37.78;19.13;;;;;;;10.63;100.00;93079.50;5081954;28;20485;-77
2022/10/13 05:16:32;;;;;;;47.10;21.30;;;;;;;10.58;100.00;93074.31;5085346;28;20154;-78
2022/10/13 05:18:58;;;;;;;42.60;19.85;;;;;;;10.55;100.00;93077.44;5072134;28;20048;-78
2022/10/13 05:21:26;;;;;;;57.72;22.33;;;;;;;10.53;100.00;93074.31;5072362;28;20048;-79
2022/10/13 05:23:54;;;;;;;54.53;23.63;;;;;;;10.48;100.00;93071.75;5056120;28;20052;-78
2022/10/13 05:26:27;;;;;;;51.35;22.17;;;;;;;10.44;100.00;93070.72;5056704;28;20052;-78
2022/10/13 05:28:59;;;;;;;43.05;21.85;;;;;;;10.42;100.00;93075.44;5064631;28;20555;-78
2022/10/13 05:31:29;;;;;;;46.05;19.10;;;;;;;10.38;100.00;93061.31;5054356;28;20029;-78
2022/10/13 05:33:56;;;;;;;47.83;17.90;;;;;;;10.40;100.00;93070.47;5061430;28;20616;-78
2022/10/13 05:36:24;;;;;;;48.28;18.38;;;;;;;10.40;100.00;93067.88;5054509;28;20142;-78
2022/10/13 05:38:54;;;;;;;32.65;16.60;;;;;;;10.42;100.00;93078.03;5063088;28;20029;-79
2022/10/13 05:41:21;;;;;;;38.13;17.27;;;;;;;10.45;100.00;93077.53;5079159;28;20517;-80
2022/10/13 05:43:47;;;;;;;34.88;16.88;;;;;;;10.42;100.00;93067.56;5079626;28;20528;-80
2022/10/13 05:46:13;;;;;;;32.45;16.48;;;;;;;10.44;100.00;93070.72;5076846;28;20405;-80
2022/10/13 05:48:40;;;;;;;40.17;16.65;;;;;;;10.44;100.00;93075.94;5075732;28;20040;-80
2022/10/13 05:51:11;;;;;;;40.53;16.42;;;;;;;10.45;100.00;93072.28;5076641;28;20039;-81
2022/10/13 05:53:39;;;;;;;33.63;17.20;;;;;;;10.46;100.00;93076.47;5076045;28;20082;-80
2022/10/13 05:56:11;;;;;;;37.88;17.75;;;;;;;10.46;100.00;93068.59;5078034;28;20021;-80
2022/10/13 05:58:42;;;;;;;34.88;16.55;;;;;;;10.51;100.00;93073.03;5066236;28;20039;-80
2022/10/13 06:01:12;;;;;;;44.85;19.95;;;;;;;10.57;100.00;93080.59;5056338;28;20040;-80
2022/10/13 06:03:40;;;;;;;42.13;19.13;;;;;;;10.65;100.00;93075.81;5062094;28;20028;-81
2022/10/13 06:09:33;;;;;;;43.03;18.80;;;;;;;10.81;100.00;93070.22;5080622;28;20036;-78
2022/10/13 06:19:21;;;;;;;31.90;15.43;;;;;;;12.15;100.00;93082.91;5074491;28;20032;-78
2022/10/13 06:21:46;;;;;;;30.25;14.82;;;;;;;12.36;100.00;93087.91;5080706;28;20113;-79
2022/10/13 06:24:12;;;;;;;33.67;14.57;;;;;;;12.53;100.00;93092.69;5064580;28;20098;-79
2022/10/13 06:26:37;;;;;;;35.92;16.08;;;;;;;12.84;100.00;93085.16;5064777;28;20036;-79
2022/10/13 06:29:03;;;;;;;31.75;15.35;;;;;;;13.10;100.00;93081.09;5081000;28;20032;-79
2022/10/13 06:34:54;;;;;;;37.10;17.85;;;;;;;13.54;99.93;93087.75;5061413;28;20044;-79
2022/10/13 06:37:19;;;;;;;39.85;18.13;;;;;;;13.73;100.00;93089.53;5070065;28;20028;-79
2022/10/13 06:47:20;;;;;;;44.30;19.38;;;;;;;15.37;93.76;93083.53;5062481;28;20189;-79
2022/10/13 06:53:40;;;;;;;37.22;19.08;;;;;;;17.04;84.19;93081.19;5061074;28;20051;-79
2022/10/13 06:59:28;;;;;;;34.95;16.20;;;;;;;18.37;78.64;93082.13;5071940;28;20103;-80
2022/10/13 07:01:53;;;;;;;27.80;15.70;;;;;;;18.85;75.05;93080.16;5080318;28;20089;-79
2022/10/13 07:04:59;;;;;;;33.58;16.88;;;;;;;19.51;74.81;93082.13;5064724;28;20032;-79
2022/10/13 07:07:25;;;;;;;31.80;15.80;;;;;;;20.13;72.13;93067.13;5059904;28;20032;-80
2022/10/13 07:09:53;;;;;;;34.85;17.33;;;;;;;19.95;69.95;93075.28;5069056;28;20509;-80
2022/10/13 07:12:19;;;;;;;28.25;15.40;;;;;;;19.53;70.40;93064.75;5080968;28;20037;-80
2022/10/13 07:14:45;;;;;;;31.15;15.30;;;;;;;19.05;72.73;93063.47;5080852;28;20035;-79
2022/10/13 07:17:12;;;;;;;33.55;16.60;;;;;;;18.30;75.94;93068.59;5059681;28;20120;-80
2022/10/13 07:19:38;;;;;;;38.83;16.80;;;;;;;17.45;81.46;93067.47;5063167;28;20609;-79
2022/10/13 07:22:03;;;;;;;38.95;16.65;;;;;;;17.44;81.92;93068.53;5079570;28;20041;-79
2022/10/13 07:24:29;;;;;;;38.00;17.83;;;;;;;17.22;83.12;93066.84;5080352;28;20146;-79
2022/10/13 07:26:54;;;;;;;38.25;17.45;;;;;;;16.82;85.27;93069.69;5080890;28;20066;-79
2022/10/13 07:29:25;;;;;;;38.80;18.00;;;;;;;16.40;87.81;93069.25;5070457;28;20499;-80
2022/10/13 07:38:46;;;;;;;34.15;17.02;;;;;;;16.77;84.77;93075.06;5006463;23;20072;-80
2022/10/13 07:41:12;;;;;;;35.30;16.40;;;;;;;16.31;86.54;93076.38;5015654;28;20072;-78
2022/10/13 07:43:38;;;;;;;30.02;15.43;;;;;;;16.44;89.48;93080.78;5016964;28;20034;-80
2022/10/13 07:46:07;;;;;;;38.75;17.30;;;;;;;16.01;92.05;93084.06;5015287;28;20139;-80
2022/10/13 07:48:33;;;;;;;36.25;17.80;;;;;;;15.72;94.59;93096.97;5016719;28;20046;-79
2022/10/13 07:51:10;;;;;;;39.08;18.42;;;;;;;15.92;94.10;93088.53;5015888;28;20156;-80
2022/10/13 07:53:36;;;;;;;39.65;19.52;;;;;;;15.95;93.61;93093.19;5016439;28;20069;-80
2022/10/13 07:56:04;;;;;;;42.15;19.40;;;;;;;16.32;91.83;93083.22;5016147;28;20526;-80
2022/10/13 07:58:30;;;;;;;40.03;20.30;;;;;;;16.36;90.50;93083.41;5016346;28;20041;-80
2022/10/13 08:00:59;;;;;;;38.47;18.00;;;;;;;16.55;90.29;93081.28;5016555;28;20038;-78
2022/10/13 08:03:25;;;;;;;44.25;18.85;;;;;;;17.00;89.25;93082.88;5016367;28;20399;-79
2022/10/13 08:05:51;;;;;;;42.40;18.25;;;;;;;17.31;85.71;93089.88;5016102;28;20060;-79
2022/10/13 08:08:17;;;;;;;40.90;18.95;;;;;;;17.23;87.40;93084.28;5015813;28;20038;-78
2022/10/13 08:10:42;;;;;;;36.63;17.42;;;;;;;17.15;89.82;93087.72;5016470;28;20030;-80
2022/10/13 08:13:09;;;;;;;35.60;19.52;;;;;;;16.74;90.23;93083.63;5017031;28;20042;-79
2022/10/13 08:15:40;;;;;;;40.03;19.48;;;;;;;16.53;92.00;93075.50;5016767;28;20399;-79
2022/10/13 08:21:31;;;;;;;38.78;20.83;;;;;;;15.94;93.16;93082.94;5016232;28;20042;-78
2022/10/13 08:23:57;;;;;;;43.63;21.58;;;;;;;15.76;94.17;93079.44;5015804;28;20057;-79
2022/10/13 08:26:25;;;;;;;40.65;21.38;;;;;;;15.60;97.59;93076.38;5015003;28;20042;-79
2022/10/13 08:28:52;;;;;;;39.63;20.45;;;;;;;15.63;98.93;93070.50;5016533;28;20049;-80
2022/10/13 08:31:18;;;;;;;39.92;21.23;;;;;;;15.50;99.51;93074.00;5016058;28;20038;-79
2022/10/13 08:33:46;;;;;;;48.38;21.77;;;;;;;15.39;100.00;93070.84;5017775;28;20436;-80
2022/10/13 08:36:15;;;;;;;48.53;21.10;;;;;;;15.27;100.00;93076.66;5003165;28;20026;-80
2022/10/13 08:38:40;;;;;;;44.20;23.52;;;;;;;15.18;100.00;93079.22;5020398;28;20041;-79
2022/10/13 08:41:23;;;;;;;44.15;21.77;;;;;;;15.05;100.00;93074.78;5018840;28;20068;-79
2022/10/13 08:43:54;;;;;;;46.92;22.08;;;;;;;15.28;100.00;93074.78;5019927;28;20042;-79
2022/10/13 08:46:38;;;;;;;44.78;21.85;;;;;;;15.84;98.16;93078.72;5020336;28;20045;-79
2022/10/13 08:49:05;;;;;;;44.45;21.02;;;;;;;16.10;92.83;93080.66;5020765;28;20038;-79
2022/10/13 08:51:30;;;;;;;41.10;19.10;;;;;;;16.16;90.73;93082.09;5019831;28;20037;-79
2022/10/13 08:53:57;;;;;;;45.55;20.35;;;;;;;16.26;87.72;93084.47;5020051;28;20045;-80
2022/10/13 08:56:32;;;;;;;47.70;20.77;;;;;;;15.93;87.16;93084.81;5019420;28;20038;-79
2022/10/13 08:59:00;;;;;;;45.95;19.83;;;;;;;16.03;88.60;93087.19;5019456;28;20037;-80
2022/10/13 09:01:31;;;;;;;38.22;18.85;;;;;;;16.47;89.53;93084.66;5018254;28;20037;-79
2022/10/13 09:04:07;;;;;;;32.88;16.30;;;;;;;16.70;83.56;93087.97;5020482;28;20046;-79
2022/10/13 09:06:53;;;;;;;40.22;18.35;;;;;;;16.57;88.73;93073.00;5020028;28;20037;-79
2022/10/13 09:09:18;;;;;;;32.15;17.80;;;;;;;16.40;88.48;93069.25;5019555;28;20053;-79
2022/10/13 09:11:47;;;;;;;34.25;16.48;;;;;;;16.54;89.13;93069.13;5020034;28;20026;-79
2022/10/13 09:14:33;;;;;;;34.17;18.67;;;;;;;16.81;91.07;93068.09;5019722;28;20498;-79
2022/10/13 09:17:22;;;;;;;37.90;19.02;;;;;;;17.10;90.82;93074.66;5018187;28;20168;-80
2022/10/13 09:19:59;;;;;;;34.10;18.35;;;;;;;17.06;86.87;93068.41;5018018;28;20049;-79
2022/10/13 09:22:29;;;;;;;37.17;19.30;;;;;;;16.73;87.45;93074.16;5016894;28;20030;-79
2022/10/13 09:25:06;;;;;;;39.42;17.20;;;;;;;16.89;86.03;93071.84;5021642;28;20038;-78
2022/10/13 09:27:51;;;;;;;35.00;18.75;;;;;;;17.04;85.07;93067.94;5017290;28;20034;-78
2022/10/13 09:30:40;;;;;;;36.30;18.38;;;;;;;16.93;85.95;93058.78;5015799;28;20038;-79
2022/10/13 09:33:08;;;;;;;37.00;17.17;;;;;;;16.99;84.64;93060.19;5018070;28;20402;-79
2022/10/13 09:35:46;;;;;;;40.25;19.08;;;;;;;17.13;86.09;93047.56;5016087;28;20068;-79
2022/10/13 09:38:21;;;;;;;38.33;19.70;;;;;;;17.14;87.44;93051.00;5016750;28;20499;-79
2022/10/13 09:41:02;;;;;;;31.92;16.48;;;;;;;16.42;88.75;93043.31;5017656;28;20049;-79
2022/10/13 09:43:57;;;;;;;35.53;19.60;;;;;;;16.82;88.70;93043.25;5018231;28;20251;-77
2022/10/13 09:46:31;;;;;;;37.50;18.52;;;;;;;16.67;86.10;93043.66;5000141;28;20036;-78
2022/10/13 09:49:37;;;;;;;40.58;19.90;;;;;;;16.45;87.96;93042.69;5017319;28;20061;-79
2022/10/13 09:52:11;;;;;;;39.20;18.25;;;;;;;16.29;91.01;93041.56;5015339;28;20034;-78
2022/10/13 09:54:48;;;;;;;30.48;18.08;;;;;;;16.57;89.07;93039.47;5017661;28;20042;-79
2022/10/13 09:57:36;;;;;;;32.92;18.27;;;;;;;16.53;88.79;93046.44;5016716;28;20458;-79
2022/10/13 10:00:12;;;;;;;36.10;19.05;;;;;;;16.94;87.34;93049.78;5015763;28;20038;-80
2022/10/13 10:06:04;;;;;;;34.58;18.42;;;;;;;16.42;87.71;93045.97;5017555;28;20037;-80
2022/10/13 10:08:36;;;;;;;38.47;19.27;;;;;;;16.39;90.55;93045.78;5018105;28;20073;-79
2022/10/13 10:11:09;;;;;;;36.47;20.02;;;;;;;16.28;90.68;93050.59;5018413;28;20037;-79
2022/10/13 10:13:35;;;;;;;35.13;18.70;;;;;;;16.22;91.37;93041.25;5018956;28;20026;-78
2022/10/13 10:16:16;;;;;;;36.85;19.67;;;;;;;16.09;90.61;93047.44;5014833;28;20034;-80
2022/10/13 10:18:48;;;;;;;38.20;18.65;;;;;;;16.23;88.62;93042.78;5015672;28;20518;-79
2022/10/13 10:21:52;;;;;;;38.85;19.38;;;;;;;16.32;89.40;93040.19;5016002;28;20030;-80
2022/10/13 10:24:35;;;;;;;32.55;17.00;;;;;;;16.16;90.16;93037.19;5018491;28;20030;-80
2022/10/13 10:27:05;;;;;;;36.33;19.23;;;;;;;16.15;88.81;93040.94;5023930;28;20037;-79
2022/10/13 10:29:39;;;;;;;40.42;19.58;;;;;;;15.92;89.25;93040.22;5033225;28;20072;-80
2022/10/13 10:32:30;;;;;;;45.15;20.80;;;;;;;15.64;90.63;93048.31;5025178;28;20030;-80
2022/10/13 10:35:16;;;;;;;36.45;17.77;;;;;;;15.83;90.91;93050.75;4980831;28;20053;-80
2022/10/13 10:38:08;;;;;;;32.40;16.92;;;;;;;15.61;90.45;93044.41;4998177;28;20050;-79
2022/10/13 10:44:30;;;;;;;37.00;18.23;;;;;;;15.87;90.25;93037.72;4998871;28;20125;-79
2022/10/13 10:47:04;;;;;;;40.17;19.40;;;;;;;16.39;88.86;93038.66;4996855;28;20555;-79
2022/10/13 10:49:33;;;;;;;43.45;21.48;;;;;;;16.49;87.20;93034.16;4998599;28;20034;-80
2022/10/13 10:52:01;;;;;;;49.30;20.70;;;;;;;16.68;85.05;93015.34;4997938;28;20038;-80
2022/10/13 10:54:48;;;;;;;33.47;17.35;;;;;;;16.58;87.90;93011.94;4996972;28;20034;-79
2022/10/13 10:57:26;;;;;;;39.33;17.52;;;;;;;16.36;89.15;93001.50;4996422;28;20038;-79
2022/10/13 10:59:55;;;;;;;41.60;20.50;;;;;;;16.05;91.13;93001.59;4997864;28;20076;-80
2022/10/13 11:05:58;;;;;;;57.50;25.27;;;;;;;16.02;88.36;93001.13;5017357;28;20041;-78
2022/10/13 11:15:43;;;;;;;58.22;26.05;;;;;;;16.00;90.96;92997.22;5018201;28;20036;-80
2022/10/13 11:18:48;;;;;;;52.97;25.50;;;;;;;16.07;90.25;92996.78;5017824;28;20029;-80
2022/10/13 11:21:13;;;;;;;62.10;25.35;;;;;;;16.07;91.40;92991.50;4996729;28;20537;-78
2022/10/13 11:23:47;;;;;;;69.30;28.38;;;;;;;16.20;88.21;92990.59;4979735;28;20159;-78
2022/10/13 11:26:40;;;;;;;67.82;27.15;;;;;;;16.36;86.45;92989.06;4996345;28;20092;-78
2022/10/13 11:29:15;;;;;;;50.13;24.13;;;;;;;16.30;88.74;92987.69;4996693;28;20038;-78
2022/10/13 11:31:54;;;;;;;50.67;24.77;;;;;;;16.27;88.77;92985.63;4996438;28;20084;-78
2022/10/13 11:34:30;;;;;;;57.67;27.00;;;;;;;16.38;87.89;92988.75;4995281;28;20039;-78
2022/10/13 11:36:58;;;;;;;57.15;27.10;;;;;;;16.45;86.76;92986.44;4995938;28;20591;-78
2022/10/13 11:39:51;;;;;;;52.88;25.50;;;;;;;16.43;87.75;92983.31;4997009;28;20113;-78
2022/10/13 11:49:54;;;;;;;;;;;;;;;16.41;88.17;92980.19;4997563;28;20045;-78
2022/10/13 11:52:47;;;;;;;51.00;24.00;;;;;;;16.10;90.59;92969.75;4996508;28;19917;-78
2022/10/13 11:55:29;;;;;;;59.55;28.45;;;;;;;15.89;93.06;92967.69;4995906;28;20468;-78
2022/10/13 11:58:13;;;;;;;61.05;28.33;;;;;;;16.01;94.38;92967.88;4995970;28;20038;-78
2022/10/13 12:04:33;;;;;;;;;;;;;;;15.93;92.57;92952.03;4996727;28;20049;-78
2022/10/13 12:10:33;;;;;;;56.83;25.98;;;;;;;15.71;91.62;92943.09;4996421;28;20030;-78
2022/10/13 12:12:59;;;;;;;67.43;32.95;;;;;;;15.77;96.06;92936.59;4996320;28;20128;-78
2022/10/13 12:15:58;;;;;;;71.40;32.28;;;;;;;15.75;96.55;92938.00;4996349;28;20037;-78
2022/10/13 12:18:33;;;;;;;58.60;28.50;;;;;;;15.77;96.25;92936.59;4996324;28;20534;-78
2022/10/13 12:21:21;;;;;;;68.90;33.72;;;;;;;15.64;96.97;92934.06;4996146;28;20052;-77
2022/10/13 12:23:48;;;;;;;73.90;34.45;;;;;;;15.52;99.50;92934.66;4996711;28;20443;-78
2022/10/13 12:26:16;;;;;;;68.72;32.92;;;;;;;15.50;99.20;92929.66;4996108;28;20547;-78
2022/10/13 12:28:50;;;;;;;65.05;31.63;;;;;;;15.41;99.34;92924.34;4996178;28;20031;-78
2022/10/13 12:31:24;;;;;;;77.88;31.58;;;;;;;15.59;99.31;92924.44;4996282;28;20042;-78
2022/10/13 12:37:38;;;;;;;84.63;32.83;;;;;;;15.84;97.29;92925.59;4993153;28;20516;-76
2022/10/13 12:40:04;;;;;;;72.43;33.42;;;;;;;15.67;98.00;92917.59;4992807;28;20053;-76
2022/10/13 12:42:35;;;;;;;71.70;33.58;;;;;;;15.65;97.19;92920.56;4994443;28;20507;-77
2022/10/13 12:45:02;;;;;;;85.88;34.75;;;;;;;15.69;97.39;92924.13;4993879;28;20483;-76
2022/10/13 12:47:47;;;;;;;74.45;33.03;;;;;;;15.76;97.27;92913.94;4994306;28;20044;-77
2022/10/13 12:50:28;;;;;;;75.10;32.35;;;;;;;15.97;97.74;92910.72;4994344;28;20035;-78